HOURLY OBS INDEX

035

Central Highlands

BLACKWATER AIRPORT

Site: 035134
Alt: 193.0m
km of


  Time     Wind        Temp  DP   Baro     Rain since   Rain past  Vis(m), Cloud(base in m), Weather
  local        km/h                         9am  last   hr   10m    
Mon 19:00  ENE 22/ 32  28.1 17.0  1012.2    0.0   0.0   0.0   0.0   ----- 
Mon 19:00  ENE 22/ 32  28.1 17.0  1012.2    0.0   0.0  ----   0.0   ----- 
Mon 19:30  ENE 20/ 30  27.7 16.9  1012.7    0.0   0.0   0.0   0.0   ----- 
Mon 19:30  ENE 20/ 30  27.7 16.9  1012.7    0.0   0.0  ----   0.0   ----- 
Mon 20:00  ENE 20/ 30  27.1 16.7  1013.0    0.0   0.0   0.0   0.0   ----- 
Mon 20:00  ENE 20/ 30  27.1 16.7  1013.0    0.0   0.0  ----   0.0   ----- 
Mon 20:30  ENE 24/ 33  26.7 16.6  1013.5    0.0   0.0   0.0   0.0   ----- 
Mon 21:00  ENE 20/ 28  26.1 16.6  1013.7    0.0   0.0   0.0   0.0   ----- 
Mon 21:30  ENE 24/ 35  25.7 16.8  1014.1    0.0   0.0   0.0   0.0   ----- 
Mon 22:00  ENE 22/ 33  25.3 17.0  1014.1    0.0   0.0   0.0   0.0   ----- 
Mon 22:30  ENE 19/ 24  24.9 17.1  1013.9    0.0   0.0   0.0   0.0   ----- 
Mon 23:00  ENE 22/ 30  24.5 17.2  1013.6    0.0   0.0   0.0   0.0   ----- 
Mon 23:30  ENE 19/ 28  24.2 16.5  1013.6    0.0   0.0   0.0   0.0   ----- 
Tue 00:00  ENE 19/ 26  23.8 16.3  1013.4    0.0   0.0   0.0   0.0   ----- 
Tue 00:30  ENE 20/ 30  23.5 16.1  1013.3    0.0   0.0   0.0   0.0   ----- 

CLERMONT AIRPORT

Site: 035124
Alt: 270.3m
98km NNW of EMERALD


  Time     Wind        Temp  DP   Baro     Rain since   Rain past  Vis(m), Cloud(base in m), Weather
  local        km/h                         9am  last   hr   10m    
Mon 19:00  ENE 11/ 24  29.6 17.8  1011.6    0.0   0.0   0.0   0.0   ----- 
Mon 19:00  ENE 11/ 24  29.6 17.8  1011.6    0.0   0.0  ----   0.0   ----- 
Mon 19:30  ENE 13/ 24  29.0 17.8  1012.0    0.0   0.0   0.0   0.0   ----- 
Mon 19:30  ENE 13/ 24  29.0 17.8  1012.0    0.0   0.0  ----   0.0   ----- 
Mon 20:00  ENE 15/ 30  28.4 18.2  1012.3    0.0   0.0   0.0   0.0   ----- 
Mon 20:00  ENE 15/ 30  28.4 18.2  1012.3    0.0   0.0  ----   0.0   ----- 
Mon 20:30  ENE 13/ 22  28.0 18.4  1012.6    0.0   0.0   0.0   0.0   ----- 
Mon 21:00    E 15/ 26  27.5 18.5  1012.8    0.0   0.0   0.0   0.0   ----- 
Mon 21:30  ENE 13/ 22  27.1 18.4  1013.4    0.0   0.0   0.0   0.0   ----- 
Mon 22:00  ENE 11/ 22  26.7 18.6  1013.5    0.0   0.0   0.0   0.0   ----- 
Mon 22:30  ENE 11/ 20  26.4 18.3  1013.7    0.0   0.0   0.0   0.0   ----- 
Mon 23:00  ENE  9/ 19  26.1 18.5  1013.7    0.0   0.0   0.0   0.0   ----- 
Mon 23:30   NE  9/ 20  25.8 18.0  1013.6    0.0   0.0   0.0   0.0   ----- 
Tue 00:00   NE  9/ 22  25.6 18.0  1013.3    0.0   0.0   0.0   0.0   ----- 
Tue 00:30  ENE 11/ 17  25.4 17.8  1013.2    0.0   0.0   0.0   0.0   ----- 

EMERALD AIRPORT

Site: 035264
Alt: 189.4m
7km SSE of EMERALD


  Time     Wind        Temp  DP   Baro     Rain since   Rain past  Vis(m), Cloud(base in m), Weather
  local        km/h                         9am  last   hr   10m    
Mon 19:00  ENE 26/ 39  29.7 18.8  1011.4    0.0   0.0   0.0   0.0   10000 
Mon 19:00  ENE 26/ 39  29.7 18.8  1011.4    0.0   0.0  ----   0.0   10000 
Mon 19:30  ENE 22/ 33  28.9 18.9  1011.8    0.0   0.0   0.0   0.0   10000 
Mon 19:30  ENE 22/ 33  28.9 18.9  1011.8    0.0   0.0  ----   0.0   10000 
Mon 20:00   NE 19/ 30  28.4 18.8  1012.1    0.0   0.0   0.0   0.0   10000 
Mon 20:00   NE 19/ 30  28.4 18.8  1012.1    0.0   0.0  ----   0.0   10000 
Mon 20:30   NE 24/ 35  28.0 18.7  1012.7    0.0   0.0   0.0   0.0   10000 
Mon 21:00   NE 19/ 24  27.5 18.5  1013.0    0.0   0.0   0.0   0.0   10000 
Mon 21:30   NE 22/ 30  27.2 17.9  1013.2    0.0   0.0   0.0   0.0   10000 
Mon 22:00   NE 20/ 26  26.7 18.0  1013.4    0.0   0.0   0.0   0.0   10000 
Mon 22:30   NE 19/ 30  26.5 17.8  1013.1    0.0   0.0   0.0   0.0   10000 
Mon 23:00   NE 17/ 24  26.1 18.0  1013.1    0.0   0.0   0.0   0.0   10000 
Mon 23:30  ENE 15/ 20  25.6 18.0  1013.2    0.0   0.0   0.0   0.0   10000 
Tue 00:00   NE 15/ 20  25.2 17.9  1013.0    0.0   0.0   0.0   0.0   10000 
Tue 00:30   NE 13/ 20  24.9 17.6  1012.8    0.0   0.0   0.0   0.0   10000 

ROLLESTON AIRPORT

Site: 035129
Alt: 219.5m
101km SSW of BLACKWATER


  Time     Wind        Temp  DP   Baro     Rain since   Rain past  Vis(m), Cloud(base in m), Weather
  local        km/h                         9am  last   hr   10m    
Mon 19:00    E 19/ 28  30.3 14.0  1012.1    0.0   0.0   0.0   0.0   ----- 
Mon 19:00    E 19/ 28  30.3 14.0  1012.1    0.0   0.0  ----   0.0   ----- 
Mon 19:30  ENE 20/ 28  29.3 16.1  1012.5    0.0   0.0   0.0   0.0   ----- 
Mon 19:30  ENE 20/ 28  29.3 16.1  1012.5    0.0   0.0  ----   0.0   ----- 
Mon 20:00   NE 17/ 28  28.5 16.7  1012.8    0.0   0.0   0.0   0.0   ----- 
Mon 20:00   NE 17/ 28  28.5 16.7  1012.8    0.0   0.0  ----   0.0   ----- 
Mon 20:30  ENE 13/ 20  28.0 16.9  1013.2    0.0   0.0   0.0   0.0   ----- 
Mon 21:00    E 13/ 19  27.5 16.8  1013.6    0.0   0.0   0.0   0.0   ----- 
Mon 21:30  ENE 15/ 22  27.1 16.7  1014.0    0.0   0.0   0.0   0.0   ----- 
Mon 22:00  ENE  9/ 13  26.6 16.8  1014.0    0.0   0.0   0.0   0.0   ----- 
Mon 22:30  ENE  6/  7  26.1 16.6  1014.0    0.0   0.0   0.0   0.0   ----- 
Mon 23:00    C  0/  0  25.0 16.2  1014.0    0.0   0.0   0.0   0.0   ----- 
Mon 23:30    E  6/  9  25.2 16.4  1013.9    0.0   0.0   0.0   0.0   ----- 
Tue 00:00    E  7/  7  24.7 16.2  1013.6    0.0   0.0   0.0   0.0   ----- 
Tue 00:30    E  7/  9  24.2 15.9  1013.5    0.0   0.0   0.0   0.0   -----